sensor_id;sensor_type;location;lat;lon;timestamp;noise_LAeq;noise_LA_min;noise_LA_max;noise_LA01;noise_LA95
56099;Laerm;44276;49.534;6.378;2023-07-16T00:00:30;45.31;40.53;60.69;;
56099;Laerm;44276;49.534;6.378;2023-07-16T00:03:00;45.96;41.14;64.09;;
56099;Laerm;44276;49.534;6.378;2023-07-16T00:05:28;46.58;40.98;60.76;;
56099;Laerm;44276;49.534;6.378;2023-07-16T00:07:56;46.54;40.71;66.46;;
56099;Laerm;44276;49.534;6.378;2023-07-16T00:10:24;43.77;40.71;58.88;;
56099;Laerm;44276;49.534;6.378;2023-07-16T00:12:52;44.21;40.89;55.83;;
56099;Laerm;44276;49.534;6.378;2023-07-16T00:15:21;45.46;40.43;63.42;;
56099;Laerm;44276;49.534;6.378;2023-07-16T00:17:49;43.33;40.62;56.66;;
56099;Laerm;44276;49.534;6.378;2023-07-16T00:20:19;44.73;40.89;56.86;;
56099;Laerm;44276;49.534;6.378;2023-07-16T00:22:47;45.20;40.53;62.25;;
56099;Laerm;44276;49.534;6.378;2023-07-16T00:25:16;44.99;40.79;62.23;;
56099;Laerm;44276;49.534;6.378;2023-07-16T00:27:44;44.61;40.80;60.33;;
56099;Laerm;44276;49.534;6.378;2023-07-16T00:30:12;44.34;40.62;61.13;;
56099;Laerm;44276;49.534;6.378;2023-07-16T00:32:40;45.33;40.62;64.32;;
56099;Laerm;44276;49.534;6.378;2023-07-16T00:35:09;47.32;40.71;65.85;;
56099;Laerm;44276;49.534;6.378;2023-07-16T00:37:38;42.33;40.62;45.33;;
56099;Laerm;44276;49.534;6.378;2023-07-16T00:40:08;42.80;40.62;53.92;;
56099;Laerm;44276;49.534;6.378;2023-07-16T00:42:36;42.57;40.43;52.12;;
56099;Laerm;44276;49.534;6.378;2023-07-16T00:45:11;44.50;40.53;60.98;;
56099;Laerm;44276;49.534;6.378;2023-07-16T00:47:42;43.15;40.33;58.33;;
56099;Laerm;44276;49.534;6.378;2023-07-16T00:50:13;43.09;40.53;53.31;;
56099;Laerm;44276;49.534;6.378;2023-07-16T00:52:42;43.40;40.53;59.54;;
56099;Laerm;44276;49.534;6.378;2023-07-16T00:55:11;43.74;40.80;56.58;;
56099;Laerm;44276;49.534;6.378;2023-07-16T00:57:39;43.01;40.80;53.17;;
56099;Laerm;44276;49.534;6.378;2023-07-16T01:00:09;44.21;40.80;59.22;;
56099;Laerm;44276;49.534;6.378;2023-07-16T01:02:38;42.73;40.13;51.62;;
56099;Laerm;44276;49.534;6.378;2023-07-16T01:05:07;44.24;40.33;58.33;;
56099;Laerm;44276;49.534;6.378;2023-07-16T01:07:38;47.00;40.98;61.07;;
56099;Laerm;44276;49.534;6.378;2023-07-16T01:10:10;44.10;40.80;55.09;;
56099;Laerm;44276;49.534;6.378;2023-07-16T01:12:39;43.68;40.53;56.40;;
56099;Laerm;44276;49.534;6.378;2023-07-16T01:15:08;43.56;40.79;53.36;;
56099;Laerm;44276;49.534;6.378;2023-07-16T01:17:36;43.54;40.43;55.07;;
56099;Laerm;44276;49.534;6.378;2023-07-16T01:20:06;47.12;40.71;67.39;;
56099;Laerm;44276;49.534;6.378;2023-07-16T01:22:56;50.38;40.88;74.36;;
56099;Laerm;44276;49.534;6.378;2023-07-16T01:26:04;45.27;41.06;63.00;;
56099;Laerm;44276;49.534;6.378;2023-07-16T01:29:12;46.41;40.33;63.46;;
56099;Laerm;44276;49.534;6.378;2023-07-16T01:31:49;46.47;40.98;62.36;;
56099;Laerm;44276;49.534;6.378;2023-07-16T01:34:18;44.57;40.80;60.92;;
56099;Laerm;44276;49.534;6.378;2023-07-16T01:36:49;44.58;40.71;59.75;;
56099;Laerm;44276;49.534;6.378;2023-07-16T01:39:18;46.37;40.80;60.69;;
56099;Laerm;44276;49.534;6.378;2023-07-16T01:41:46;47.17;40.80;69.68;;
56099;Laerm;44276;49.534;6.378;2023-07-16T01:44:16;44.56;40.53;60.93;;
56099;Laerm;44276;49.534;6.378;2023-07-16T01:46:44;47.30;40.53;66.22;;
56099;Laerm;44276;49.534;6.378;2023-07-16T01:49:16;46.39;40.71;64.85;;
56099;Laerm;44276;49.534;6.378;2023-07-16T01:51:44;47.27;40.43;63.38;;
56099;Laerm;44276;49.534;6.378;2023-07-16T01:54:12;46.77;40.80;69.54;;
56099;Laerm;44276;49.534;6.378;2023-07-16T01:56:41;46.19;40.71;59.76;;
56099;Laerm;44276;49.534;6.378;2023-07-16T01:59:09;44.38;40.71;57.90;;
56099;Laerm;44276;49.534;6.378;2023-07-16T02:01:38;42.68;40.79;48.42;;
56099;Laerm;44276;49.534;6.378;2023-07-16T02:04:07;43.88;40.71;59.34;;
56099;Laerm;44276;49.534;6.378;2023-07-16T02:06:35;43.33;40.89;52.64;;
56099;Laerm;44276;49.534;6.378;2023-07-16T02:09:03;45.44;40.62;65.16;;
56099;Laerm;44276;49.534;6.378;2023-07-16T02:11:32;45.16;40.80;60.38;;
56099;Laerm;44276;49.534;6.378;2023-07-16T02:14:00;42.78;40.71;51.26;;
56099;Laerm;44276;49.534;6.378;2023-07-16T02:16:28;42.94;40.71;54.75;;
56099;Laerm;44276;49.534;6.378;2023-07-16T02:18:58;42.65;40.63;51.15;;
56099;Laerm;44276;49.534;6.378;2023-07-16T02:21:26;42.87;40.53;51.47;;
56099;Laerm;44276;49.534;6.378;2023-07-16T02:23:54;42.90;40.33;51.10;;
56099;Laerm;44276;49.534;6.378;2023-07-16T02:26:22;42.21;40.23;47.04;;
56099;Laerm;44276;49.534;6.378;2023-07-16T02:28:50;43.64;40.23;57.54;;
56099;Laerm;44276;49.534;6.378;2023-07-16T02:31:19;42.45;40.53;53.94;;
56099;Laerm;44276;49.534;6.378;2023-07-16T02:33:47;42.50;40.71;51.65;;
56099;Laerm;44276;49.534;6.378;2023-07-16T02:36:17;42.25;40.53;46.59;;
56099;Laerm;44276;49.534;6.378;2023-07-16T02:38:45;42.21;40.33;50.22;;
56099;Laerm;44276;49.534;6.378;2023-07-16T02:41:13;42.56;40.33;50.50;;
56099;Laerm;44276;49.534;6.378;2023-07-16T02:43:41;42.60;40.53;53.57;;
56099;Laerm;44276;49.534;6.378;2023-07-16T02:46:09;42.68;39.46;50.70;;
56099;Laerm;44276;49.534;6.378;2023-07-16T02:48:37;43.22;40.71;56.32;;
56099;Laerm;44276;49.534;6.378;2023-07-16T02:51:05;42.46;40.43;53.09;;
56099;Laerm;44276;49.534;6.378;2023-07-16T02:53:35;42.27;39.92;48.52;;
56099;Laerm;44276;49.534;6.378;2023-07-16T02:56:03;42.54;40.53;58.24;;
56099;Laerm;44276;49.534;6.378;2023-07-16T02:58:32;42.38;40.53;48.80;;
56099;Laerm;44276;49.534;6.378;2023-07-16T03:01:00;43.26;40.43;54.90;;
56099;Laerm;44276;49.534;6.378;2023-07-16T03:03:28;42.35;40.33;45.45;;
56099;Laerm;44276;49.534;6.378;2023-07-16T03:06:02;42.35;40.62;47.81;;
56099;Laerm;44276;49.534;6.378;2023-07-16T03:08:30;42.45;40.43;46.40;;
56099;Laerm;44276;49.534;6.378;2023-07-16T03:11:00;42.58;40.62;47.76;;
56099;Laerm;44276;49.534;6.378;2023-07-16T03:13:28;42.73;40.53;53.12;;
56099;Laerm;44276;49.534;6.378;2023-07-16T03:15:57;42.89;40.71;53.57;;
56099;Laerm;44276;49.534;6.378;2023-07-16T03:18:28;42.74;40.33;52.66;;
56099;Laerm;44276;49.534;6.378;2023-07-16T03:20:57;42.35;40.71;47.88;;
56099;Laerm;44276;49.534;6.378;2023-07-16T03:23:25;42.32;40.80;45.11;;
56099;Laerm;44276;49.534;6.378;2023-07-16T03:25:54;42.12;40.43;44.54;;
56099;Laerm;44276;49.534;6.378;2023-07-16T03:28:23;42.15;40.23;44.27;;
56099;Laerm;44276;49.534;6.378;2023-07-16T03:30:52;42.25;40.62;44.62;;
56099;Laerm;44276;49.534;6.378;2023-07-16T03:33:21;42.23;40.80;44.15;;
56099;Laerm;44276;49.534;6.378;2023-07-16T03:35:49;42.38;40.53;47.04;;
56099;Laerm;44276;49.534;6.378;2023-07-16T03:38:18;42.15;40.43;44.35;;
56099;Laerm;44276;49.534;6.378;2023-07-16T03:40:48;42.34;40.33;46.18;;
56099;Laerm;44276;49.534;6.378;2023-07-16T03:43:17;42.15;40.62;45.72;;
56099;Laerm;44276;49.534;6.378;2023-07-16T03:45:46;42.12;40.23;44.47;;
56099;Laerm;44276;49.534;6.378;2023-07-16T03:48:14;42.08;40.43;44.03;;
56099;Laerm;44276;49.534;6.378;2023-07-16T03:50:43;42.23;40.63;47.98;;
56099;Laerm;44276;49.534;6.378;2023-07-16T03:53:11;42.13;40.53;44.43;;
56099;Laerm;44276;49.534;6.378;2023-07-16T03:55:39;42.33;40.33;46.64;;
56099;Laerm;44276;49.534;6.378;2023-07-16T03:58:07;42.11;40.53;45.17;;
56099;Laerm;44276;49.534;6.378;2023-07-16T04:00:35;42.16;40.53;44.15;;
56099;Laerm;44276;49.534;6.378;2023-07-16T04:03:05;42.39;40.33;48.02;;
56099;Laerm;44276;49.534;6.378;2023-07-16T04:05:33;42.25;40.71;46.57;;
56099;Laerm;44276;49.534;6.378;2023-07-16T04:08:02;42.24;40.53;45.20;;
56099;Laerm;44276;49.534;6.378;2023-07-16T04:10:30;42.43;40.33;48.95;;
56099;Laerm;44276;49.534;6.378;2023-07-16T04:13:00;42.50;40.62;48.70;;
56099;Laerm;44276;49.534;6.378;2023-07-16T04:15:28;42.46;40.53;48.99;;
56099;Laerm;44276;49.534;6.378;2023-07-16T04:17:57;42.22;40.62;47.04;;
56099;Laerm;44276;49.534;6.378;2023-07-16T04:20:27;42.33;40.43;47.18;;
56099;Laerm;44276;49.534;6.378;2023-07-16T04:22:56;42.18;40.71;44.80;;
56099;Laerm;44276;49.534;6.378;2023-07-16T04:25:26;42.15;40.62;44.19;;
56099;Laerm;44276;49.534;6.378;2023-07-16T04:27:56;42.18;40.33;44.43;;
56099;Laerm;44276;49.534;6.378;2023-07-16T04:30:24;42.18;40.71;44.15;;
56099;Laerm;44276;49.534;6.378;2023-07-16T04:32:56;42.27;40.53;47.18;;
56099;Laerm;44276;49.534;6.378;2023-07-16T04:35:25;42.66;40.23;51.28;;
56099;Laerm;44276;49.534;6.378;2023-07-16T04:37:53;42.55;40.62;49.34;;
56099;Laerm;44276;49.534;6.378;2023-07-16T04:40:22;43.19;40.23;61.37;;
56099;Laerm;44276;49.534;6.378;2023-07-16T04:42:50;43.16;40.54;55.32;;
56099;Laerm;44276;49.534;6.378;2023-07-16T04:45:18;42.64;40.80;49.78;;
56099;Laerm;44276;49.534;6.378;2023-07-16T04:47:46;43.17;40.89;51.34;;
56099;Laerm;44276;49.534;6.378;2023-07-16T04:50:15;44.13;40.80;54.65;;
56099;Laerm;44276;49.534;6.378;2023-07-16T04:52:45;42.77;40.53;50.70;;
56099;Laerm;44276;49.534;6.378;2023-07-16T04:55:13;43.52;40.89;54.43;;
56099;Laerm;44276;49.534;6.378;2023-07-16T04:57:41;43.08;40.43;51.75;;
56099;Laerm;44276;49.534;6.378;2023-07-16T05:00:11;42.43;40.33;46.28;;
56099;Laerm;44276;49.534;6.378;2023-07-16T05:02:40;42.51;40.62;52.08;;
56099;Laerm;44276;49.534;6.378;2023-07-16T05:05:09;42.65;40.98;49.67;;
56099;Laerm;44276;49.534;6.378;2023-07-16T05:07:37;42.87;40.53;50.64;;
56099;Laerm;44276;49.534;6.378;2023-07-16T05:10:08;42.74;40.80;52.66;;
56099;Laerm;44276;49.534;6.378;2023-07-16T05:12:36;42.47;40.80;48.00;;
56099;Laerm;44276;49.534;6.378;2023-07-16T05:15:06;43.58;40.53;57.53;;
56099;Laerm;44276;49.534;6.378;2023-07-16T05:17:35;42.46;40.80;48.83;;
56099;Laerm;44276;49.534;6.378;2023-07-16T05:20:04;42.61;40.62;48.96;;
56099;Laerm;44276;49.534;6.378;2023-07-16T05:22:33;42.63;40.53;50.18;;
56099;Laerm;44276;49.534;6.378;2023-07-16T05:25:02;42.76;40.80;51.33;;
56099;Laerm;44276;49.534;6.378;2023-07-16T05:27:32;44.75;40.62;61.38;;
56099;Laerm;44276;49.534;6.378;2023-07-16T05:30:00;44.14;40.98;56.65;;
56099;Laerm;44276;49.534;6.378;2023-07-16T05:32:28;43.03;40.80;51.22;;
56099;Laerm;44276;49.534;6.378;2023-07-16T05:34:56;42.47;40.89;49.40;;
56099;Laerm;44276;49.534;6.378;2023-07-16T05:37:28;42.40;40.71;44.38;;
56099;Laerm;44276;49.534;6.378;2023-07-16T05:39:56;42.42;40.89;45.30;;
56099;Laerm;44276;49.534;6.378;2023-07-16T05:42:24;42.67;40.71;49.58;;
56099;Laerm;44276;49.534;6.378;2023-07-16T05:44:53;42.48;40.89;46.95;;
56099;Laerm;44276;49.534;6.378;2023-07-16T05:47:22;42.49;40.89;49.49;;
56099;Laerm;44276;49.534;6.378;2023-07-16T05:49:50;44.28;40.89;57.28;;
56099;Laerm;44276;49.534;6.378;2023-07-16T05:52:18;44.85;40.98;60.63;;
56099;Laerm;44276;49.534;6.378;2023-07-16T05:54:46;43.25;40.62;54.82;;
56099;Laerm;44276;49.534;6.378;2023-07-16T05:57:15;46.43;40.98;61.88;;
56099;Laerm;44276;49.534;6.378;2023-07-16T05:59:43;43.75;40.53;57.33;;
56099;Laerm;44276;49.534;6.378;2023-07-16T06:02:13;44.14;41.06;63.13;;
56099;Laerm;44276;49.534;6.378;2023-07-16T06:04:42;42.92;40.89;50.07;;
56099;Laerm;44276;49.534;6.378;2023-07-16T06:07:12;45.37;41.22;59.28;;
56099;Laerm;44276;49.534;6.378;2023-07-16T06:09:41;42.69;40.89;48.87;;
56099;Laerm;44276;49.534;6.378;2023-07-16T06:12:09;44.17;40.89;57.19;;
56099;Laerm;44276;49.534;6.378;2023-07-16T06:14:37;44.38;40.98;58.36;;
56099;Laerm;44276;49.534;6.378;2023-07-16T06:17:06;43.56;41.22;58.08;;
56099;Laerm;44276;49.534;6.378;2023-07-16T06:19:35;43.63;40.98;55.56;;
56099;Laerm;44276;49.534;6.378;2023-07-16T06:22:04;42.66;41.22;45.66;;
56099;Laerm;44276;49.534;6.378;2023-07-16T06:24:32;43.27;40.80;55.05;;
56099;Laerm;44276;49.534;6.378;2023-07-16T06:27:02;43.09;41.06;54.97;;
56099;Laerm;44276;49.534;6.378;2023-07-16T06:29:30;44.21;40.96;58.85;;
56099;Laerm;44276;49.534;6.378;2023-07-16T06:31:58;43.84;40.98;55.87;;
56099;Laerm;44276;49.534;6.378;2023-07-16T06:34:27;43.26;41.38;53.52;;
56099;Laerm;44276;49.534;6.378;2023-07-16T06:36:56;43.07;41.14;54.09;;
56099;Laerm;44276;49.534;6.378;2023-07-16T06:39:24;43.19;41.06;57.46;;
56099;Laerm;44276;49.534;6.378;2023-07-16T06:41:53;45.24;41.14;60.05;;
56099;Laerm;44276;49.534;6.378;2023-07-16T06:44:22;45.06;41.14;60.16;;
56099;Laerm;44276;49.534;6.378;2023-07-16T06:46:50;44.30;40.89;58.71;;
56099;Laerm;44276;49.534;6.378;2023-07-16T06:49:18;44.20;41.14;58.38;;
56099;Laerm;44276;49.534;6.378;2023-07-16T06:51:47;45.25;41.14;57.96;;
56099;Laerm;44276;49.534;6.378;2023-07-16T06:54:16;44.19;41.14;57.51;;
56099;Laerm;44276;49.534;6.378;2023-07-16T06:56:45;44.15;41.06;58.96;;
56099;Laerm;44276;49.534;6.378;2023-07-16T06:59:13;43.75;40.89;54.29;;
56099;Laerm;44276;49.534;6.378;2023-07-16T07:01:41;46.02;41.06;61.92;;
56099;Laerm;44276;49.534;6.378;2023-07-16T07:04:10;45.23;41.14;61.04;;
56099;Laerm;44276;49.534;6.378;2023-07-16T07:06:39;45.23;41.38;61.10;;
56099;Laerm;44276;49.534;6.378;2023-07-16T07:09:08;47.11;40.62;61.73;;
56099;Laerm;44276;49.534;6.378;2023-07-16T07:11:39;46.66;40.62;63.34;;
56099;Laerm;44276;49.534;6.378;2023-07-16T07:14:07;44.95;40.53;59.50;;
56099;Laerm;44276;49.534;6.378;2023-07-16T07:16:37;47.22;40.53;62.09;;
56099;Laerm;44276;49.534;6.378;2023-07-16T07:19:08;43.49;40.62;57.66;;
56099;Laerm;44276;49.534;6.378;2023-07-16T07:21:36;44.47;40.71;58.01;;
56099;Laerm;44276;49.534;6.378;2023-07-16T07:24:05;47.83;40.71;64.86;;
56099;Laerm;44276;49.534;6.378;2023-07-16T07:26:33;44.63;40.33;60.16;;
56099;Laerm;44276;49.534;6.378;2023-07-16T07:29:02;43.69;40.62;53.30;;
56099;Laerm;44276;49.534;6.378;2023-07-16T07:31:30;43.76;40.13;57.26;;
56099;Laerm;44276;49.534;6.378;2023-07-16T07:33:59;43.11;40.33;52.60;;
56099;Laerm;44276;49.534;6.378;2023-07-16T07:36:28;47.33;40.53;61.32;;
56099;Laerm;44276;49.534;6.378;2023-07-16T07:38:56;45.32;40.89;61.84;;
56099;Laerm;44276;49.534;6.378;2023-07-16T07:41:24;43.68;40.53;53.67;;
56099;Laerm;44276;49.534;6.378;2023-07-16T07:43:53;45.07;40.71;55.06;;
56099;Laerm;44276;49.534;6.378;2023-07-16T07:46:22;45.94;40.80;56.51;;
56099;Laerm;44276;49.534;6.378;2023-07-16T07:48:50;46.52;39.92;59.80;;
56099;Laerm;44276;49.534;6.378;2023-07-16T07:51:18;44.60;40.43;53.66;;
56099;Laerm;44276;49.534;6.378;2023-07-16T07:53:47;44.39;40.13;53.06;;
56099;Laerm;44276;49.534;6.378;2023-07-16T07:56:15;45.84;40.43;60.90;;
56099;Laerm;44276;49.534;6.378;2023-07-16T07:58:44;49.00;40.71;62.96;;
56099;Laerm;44276;49.534;6.378;2023-07-16T08:01:12;47.75;40.79;70.22;;
56099;Laerm;44276;49.534;6.378;2023-07-16T08:03:42;48.97;40.53;64.51;;
56099;Laerm;44276;49.534;6.378;2023-07-16T08:06:11;50.83;40.23;65.63;;
56099;Laerm;44276;49.534;6.378;2023-07-16T08:08:40;47.59;40.33;57.14;;
56099;Laerm;44276;49.534;6.378;2023-07-16T08:11:08;49.34;39.21;65.01;;
56099;Laerm;44276;49.534;6.378;2023-07-16T08:13:36;52.65;40.96;66.32;;
56099;Laerm;44276;49.534;6.378;2023-07-16T08:16:04;50.11;39.58;65.53;;
56099;Laerm;44276;49.534;6.378;2023-07-16T08:18:32;49.45;40.27;61.04;;
56099;Laerm;44276;49.534;6.378;2023-07-16T08:21:02;51.31;40.89;62.63;;
56099;Laerm;44276;49.534;6.378;2023-07-16T08:23:30;51.63;39.81;67.94;;
56099;Laerm;44276;49.534;6.378;2023-07-16T08:25:58;53.23;41.30;68.65;;
56099;Laerm;44276;49.534;6.378;2023-07-16T08:28:26;54.76;40.03;70.31;;
56099;Laerm;44276;49.534;6.378;2023-07-16T08:30:54;58.50;40.43;73.75;;
56099;Laerm;44276;49.534;6.378;2023-07-16T08:33:23;50.59;40.71;64.09;;
56099;Laerm;44276;49.534;6.378;2023-07-16T08:35:51;52.29;36.45;68.12;;
56099;Laerm;44276;49.534;6.378;2023-07-16T08:38:20;52.93;34.69;61.61;;
56099;Laerm;44276;49.534;6.378;2023-07-16T08:40:48;50.68;38.21;63.27;;
56099;Laerm;44276;49.534;6.378;2023-07-16T08:43:17;51.98;32.93;64.25;;
56099;Laerm;44276;49.534;6.378;2023-07-16T08:45:48;50.62;33.90;63.78;;
56099;Laerm;44276;49.534;6.378;2023-07-16T08:48:17;50.10;33.44;60.57;;
56099;Laerm;44276;49.534;6.378;2023-07-16T08:50:48;52.95;37.12;67.63;;
56099;Laerm;44276;49.534;6.378;2023-07-16T08:53:17;53.18;38.81;71.22;;
56099;Laerm;44276;49.534;6.378;2023-07-16T08:55:47;51.92;32.35;66.65;;
56099;Laerm;44276;49.534;6.378;2023-07-16T08:58:21;52.19;37.52;71.54;;
56099;Laerm;44276;49.534;6.378;2023-07-16T09:00:51;51.93;34.31;62.98;;
56099;Laerm;44276;49.534;6.378;2023-07-16T09:03:20;52.58;36.45;66.72;;
56099;Laerm;44276;49.534;6.378;2023-07-16T09:05:48;56.02;39.46;73.61;;
56099;Laerm;44276;49.534;6.378;2023-07-16T09:08:16;53.88;35.59;66.54;;
56099;Laerm;44276;49.534;6.378;2023-07-16T09:10:54;58.93;37.12;73.99;;
56099;Laerm;44276;49.534;6.378;2023-07-16T09:13:23;57.07;40.13;69.12;;
56099;Laerm;44276;49.534;6.378;2023-07-16T09:15:55;56.92;40.33;73.22;;
56099;Laerm;44276;49.534;6.378;2023-07-16T09:18:26;57.86;40.18;72.55;;
56099;Laerm;44276;49.534;6.378;2023-07-16T09:20:56;56.17;39.08;68.35;;
56099;Laerm;44276;49.534;6.378;2023-07-16T09:23:25;59.13;39.70;71.30;;
56099;Laerm;44276;49.534;6.378;2023-07-16T09:25:56;58.49;40.23;72.17;;
56099;Laerm;44276;49.534;6.378;2023-07-16T09:28:24;57.50;39.92;70.75;;
56099;Laerm;44276;49.534;6.378;2023-07-16T09:30:53;55.14;41.75;72.48;;
56099;Laerm;44276;49.534;6.378;2023-07-16T09:33:22;55.66;43.68;67.78;;
56099;Laerm;44276;49.534;6.378;2023-07-16T09:35:53;54.63;43.39;63.07;;
56099;Laerm;44276;49.534;6.378;2023-07-16T09:38:22;54.41;43.58;61.32;;
56099;Laerm;44276;49.534;6.378;2023-07-16T09:40:52;56.52;43.76;67.94;;
56099;Laerm;44276;49.534;6.378;2023-07-16T09:43:21;57.53;44.19;67.46;;
56099;Laerm;44276;49.534;6.378;2023-07-16T09:45:50;56.58;40.98;72.28;;
56099;Laerm;44276;49.534;6.378;2023-07-16T09:48:18;56.38;40.62;74.97;;
56099;Laerm;44276;49.534;6.378;2023-07-16T09:50:51;55.00;40.03;72.25;;
56099;Laerm;44276;49.534;6.378;2023-07-16T09:53:21;54.25;40.03;69.83;;
56099;Laerm;44276;49.534;6.378;2023-07-16T09:55:54;54.07;41.96;64.93;;
56099;Laerm;44276;49.534;6.378;2023-07-16T09:58:25;55.20;40.33;69.76;;
56099;Laerm;44276;49.534;6.378;2023-07-16T10:00:55;54.99;42.59;67.49;;
56099;Laerm;44276;49.534;6.378;2023-07-16T10:03:24;52.34;42.93;68.26;;
56099;Laerm;44276;49.534;6.378;2023-07-16T10:05:52;58.11;41.96;72.63;;
56099;Laerm;44276;49.534;6.378;2023-07-16T10:08:20;52.99;40.89;68.02;;
56099;Laerm;44276;49.534;6.378;2023-07-16T10:10:54;54.62;38.05;71.07;;
56099;Laerm;44276;49.534;6.378;2023-07-16T10:13:27;55.94;37.52;72.33;;
56099;Laerm;44276;49.534;6.378;2023-07-16T10:15:57;54.30;37.52;69.29;;
56099;Laerm;44276;49.534;6.378;2023-07-16T10:18:27;53.83;38.05;70.12;;
56099;Laerm;44276;49.534;6.378;2023-07-16T10:21:03;54.62;37.32;65.86;;
56099;Laerm;44276;49.534;6.378;2023-07-16T10:23:41;54.94;40.33;66.73;;
56099;Laerm;44276;49.534;6.378;2023-07-16T10:26:12;54.00;39.92;62.93;;
56099;Laerm;44276;49.534;6.378;2023-07-16T10:28:47;53.28;35.94;65.05;;
56099;Laerm;44276;49.534;6.378;2023-07-16T10:31:20;52.50;39.81;59.34;;
56099;Laerm;44276;49.534;6.378;2023-07-16T10:34:00;52.44;40.43;60.12;;
56099;Laerm;44276;49.534;6.378;2023-07-16T10:36:28;51.79;42.16;61.05;;
56099;Laerm;44276;49.534;6.378;2023-07-16T10:39:03;51.46;41.11;60.31;;
56099;Laerm;44276;49.534;6.378;2023-07-16T10:41:32;52.00;41.38;61.12;;
56099;Laerm;44276;49.534;6.378;2023-07-16T10:44:03;53.46;37.32;60.57;;
56099;Laerm;44276;49.534;6.378;2023-07-16T10:46:32;53.66;41.53;59.97;;
56099;Laerm;44276;49.534;6.378;2023-07-16T10:49:01;54.46;41.30;63.39;;
56099;Laerm;44276;49.534;6.378;2023-07-16T10:51:29;54.40;35.66;67.69;;
56099;Laerm;44276;49.534;6.378;2023-07-16T10:53:58;53.39;40.43;66.54;;
56099;Laerm;44276;49.534;6.378;2023-07-16T10:56:26;51.77;42.41;64.60;;
56099;Laerm;44276;49.534;6.378;2023-07-16T10:58:54;54.50;41.46;69.70;;
56099;Laerm;44276;49.534;6.378;2023-07-16T11:01:24;55.81;44.03;71.74;;
56099;Laerm;44276;49.534;6.378;2023-07-16T11:03:52;52.60;42.65;63.75;;
56099;Laerm;44276;49.534;6.378;2023-07-16T11:06:22;51.14;39.81;63.07;;
56099;Laerm;44276;49.534;6.378;2023-07-16T11:08:50;52.87;41.48;65.72;;
56099;Laerm;44276;49.534;6.378;2023-07-16T11:11:28;52.13;40.89;65.20;;
56099;Laerm;44276;49.534;6.378;2023-07-16T11:13:57;51.47;37.32;64.04;;
56099;Laerm;44276;49.534;6.378;2023-07-16T11:16:26;52.86;41.96;69.54;;
56099;Laerm;44276;49.534;6.378;2023-07-16T11:18:55;47.60;40.43;56.53;;
56099;Laerm;44276;49.534;6.378;2023-07-16T11:21:23;50.93;38.21;64.63;;
56099;Laerm;44276;49.534;6.378;2023-07-16T11:23:51;50.41;42.03;60.61;;
56099;Laerm;44276;49.534;6.378;2023-07-16T11:26:20;51.14;38.95;63.33;;
56099;Laerm;44276;49.534;6.378;2023-07-16T11:28:51;54.11;35.94;68.86;;
56099;Laerm;44276;49.534;6.378;2023-07-16T11:31:19;52.53;41.53;63.39;;
56099;Laerm;44276;49.534;6.378;2023-07-16T11:33:52;51.74;40.53;66.19;;
56099;Laerm;44276;49.534;6.378;2023-07-16T11:36:20;57.20;42.41;72.59;;
56099;Laerm;44276;49.534;6.378;2023-07-16T11:38:49;55.57;41.96;67.82;;
56099;Laerm;44276;49.534;6.378;2023-07-16T11:41:20;52.25;40.53;68.78;;
56099;Laerm;44276;49.534;6.378;2023-07-16T11:43:50;54.75;39.70;71.53;;
56099;Laerm;44276;49.534;6.378;2023-07-16T11:46:18;59.80;43.44;74.38;;
56099;Laerm;44276;49.534;6.378;2023-07-16T11:48:47;53.76;42.82;67.47;;
56099;Laerm;44276;49.534;6.378;2023-07-16T11:51:17;57.44;39.92;74.51;;
56099;Laerm;44276;49.534;6.378;2023-07-16T11:53:45;52.39;37.70;62.07;;
56099;Laerm;44276;49.534;6.378;2023-07-16T11:56:13;52.90;42.09;74.19;;
56099;Laerm;44276;49.534;6.378;2023-07-16T11:58:42;53.99;41.14;68.51;;
56099;Laerm;44276;49.534;6.378;2023-07-16T12:01:10;53.53;36.45;68.24;;
56099;Laerm;44276;49.534;6.378;2023-07-16T12:03:38;52.74;39.92;67.61;;
56099;Laerm;44276;49.534;6.378;2023-07-16T12:06:08;54.46;40.71;68.73;;
56099;Laerm;44276;49.534;6.378;2023-07-16T12:08:37;56.47;40.62;75.42;;
56099;Laerm;44276;49.534;6.378;2023-07-16T12:11:05;54.25;42.22;69.65;;
56099;Laerm;44276;49.534;6.378;2023-07-16T12:13:34;57.56;40.96;73.20;;
56099;Laerm;44276;49.534;6.378;2023-07-16T12:16:02;54.39;42.59;74.93;;
56099;Laerm;44276;49.534;6.378;2023-07-16T12:18:30;52.86;42.76;68.18;;
56099;Laerm;44276;49.534;6.378;2023-07-16T12:20:58;49.61;39.46;64.67;;
56099;Laerm;44276;49.534;6.378;2023-07-16T12:23:26;51.01;38.95;68.19;;
56099;Laerm;44276;49.534;6.378;2023-07-16T12:25:56;47.58;41.82;56.51;;
56099;Laerm;44276;49.534;6.378;2023-07-16T12:28:24;55.91;40.13;74.80;;
56099;Laerm;44276;49.534;6.378;2023-07-16T12:30:52;51.94;40.03;72.47;;
56099;Laerm;44276;49.534;6.378;2023-07-16T12:33:21;49.20;42.59;61.20;;
56099;Laerm;44276;49.534;6.378;2023-07-16T12:35:49;49.33;41.53;62.16;;
56099;Laerm;44276;49.534;6.378;2023-07-16T12:38:18;49.32;39.21;62.69;;
56099;Laerm;44276;49.534;6.378;2023-07-16T12:40:49;53.51;41.30;68.47;;
56099;Laerm;44276;49.534;6.378;2023-07-16T12:43:19;54.83;42.59;70.22;;
56099;Laerm;44276;49.534;6.378;2023-07-16T12:45:47;53.52;41.53;69.27;;
56099;Laerm;44276;49.534;6.378;2023-07-16T12:48:15;53.55;42.41;72.44;;
56099;Laerm;44276;49.534;6.378;2023-07-16T12:50:43;47.83;40.23;61.20;;
56099;Laerm;44276;49.534;6.378;2023-07-16T12:53:11;51.87;42.59;71.36;;
56099;Laerm;44276;49.534;6.378;2023-07-16T12:55:40;53.05;42.09;75.60;;
56099;Laerm;44276;49.534;6.378;2023-07-16T12:58:08;48.78;40.62;67.29;;
56099;Laerm;44276;49.534;6.378;2023-07-16T13:00:37;50.64;41.14;65.93;;
56099;Laerm;44276;49.534;6.378;2023-07-16T13:03:06;48.32;40.62;60.14;;
56099;Laerm;44276;49.534;6.378;2023-07-16T13:05:38;49.00;39.34;64.94;;
56099;Laerm;44276;49.534;6.378;2023-07-16T13:08:06;51.76;40.33;69.94;;
56099;Laerm;44276;49.534;6.378;2023-07-16T13:10:35;52.85;39.70;68.44;;
56099;Laerm;44276;49.534;6.378;2023-07-16T13:13:03;49.21;40.80;65.08;;
56099;Laerm;44276;49.534;6.378;2023-07-16T13:15:32;49.10;42.41;62.12;;
56099;Laerm;44276;49.534;6.378;2023-07-16T13:18:02;49.05;41.06;60.71;;
56099;Laerm;44276;49.534;6.378;2023-07-16T13:20:30;51.83;40.36;67.40;;
56099;Laerm;44276;49.534;6.378;2023-07-16T13:22:58;51.46;37.52;68.76;;
56099;Laerm;44276;49.534;6.378;2023-07-16T13:25:27;52.09;41.22;64.96;;
56099;Laerm;44276;49.534;6.378;2023-07-16T13:27:56;49.73;40.80;67.10;;
56099;Laerm;44276;49.534;6.378;2023-07-16T13:30:25;48.56;37.70;61.85;;
56099;Laerm;44276;49.534;6.378;2023-07-16T13:32:53;49.76;41.22;63.73;;
56099;Laerm;44276;49.534;6.378;2023-07-16T13:35:24;51.71;40.98;68.40;;
56099;Laerm;44276;49.534;6.378;2023-07-16T13:37:53;51.07;40.33;66.44;;
56099;Laerm;44276;49.534;6.378;2023-07-16T13:40:21;47.64;39.58;58.77;;
56099;Laerm;44276;49.534;6.378;2023-07-16T13:42:49;54.71;39.23;76.18;;
56099;Laerm;44276;49.534;6.378;2023-07-16T13:45:17;51.02;41.38;64.89;;
56099;Laerm;44276;49.534;6.378;2023-07-16T13:47:46;46.71;34.69;60.56;;
56099;Laerm;44276;49.534;6.378;2023-07-16T13:50:15;52.08;39.34;67.53;;
56099;Laerm;44276;49.534;6.378;2023-07-16T13:52:44;51.18;37.32;68.04;;
56099;Laerm;44276;49.534;6.378;2023-07-16T13:55:12;46.93;31.68;57.45;;